Airport View

Enter AWOS ICAO identifier for current METAR.

ex. KFNL

KJXI 251345Z AUTO 00000KT 10SM OVC021 18/17 A3003 RMK AO2 T01790173

25 Sep 2020 13:53

Frequency: 118.2

Phone: 903-734-7313

Other Area AWOS: KGGG - KOSA - KJDD - KTYR

TAF KGGG 251140Z 2512/2612 00000KT 6SM BR BKN015 TEMPO 2512/2514 4SM BR BKN010 FM251400 VRB03KT 6SM BR BKN015 FM251600 17005KT P6SM BKN025 FM251800 17005KT P6SM SCT035 FM252100 17005KT P6SM SCT250 FM260600 VRB03KT P6SM SCT025